sensor_id;sensor_type;location;lat;lon;timestamp;pressure;altitude;pressure_sealevel;temperature;humidity
65666;BME280;52365;47.464;18.976;2023-01-28T00:00:10;99805.19;;;4.86;57.98
65666;BME280;52365;47.464;18.976;2023-01-28T00:00:46;99797.59;;;4.64;59.05
65666;BME280;52365;47.464;18.976;2023-01-28T00:01:22;99807.16;;;4.42;60.12
65666;BME280;52365;47.464;18.976;2023-01-28T00:01:58;99800.94;;;4.28;60.95
65666;BME280;52365;47.464;18.976;2023-01-28T00:02:35;99803.28;;;4.46;60.96
65666;BME280;52365;47.464;18.976;2023-01-28T00:03:11;99799.38;;;4.51;60.40
65666;BME280;52365;47.464;18.976;2023-01-28T00:03:50;99809.28;;;4.50;60.46
65666;BME280;52365;47.464;18.976;2023-01-28T00:04:27;99800.00;;;4.59;60.52
65666;BME280;52365;47.464;18.976;2023-01-28T00:05:03;99801.38;;;4.67;60.20
65666;BME280;52365;47.464;18.976;2023-01-28T00:05:39;99794.50;;;4.46;60.85
65666;BME280;52365;47.464;18.976;2023-01-28T00:06:15;99804.50;;;4.42;61.08
65666;BME280;52365;47.464;18.976;2023-01-28T00:06:51;99803.47;;;4.36;61.47
65666;BME280;52365;47.464;18.976;2023-01-28T00:07:28;99799.84;;;4.46;61.44
65666;BME280;52365;47.464;18.976;2023-01-28T00:08:04;99808.47;;;4.53;61.29
65666;BME280;52365;47.464;18.976;2023-01-28T00:08:40;99806.81;;;4.60;61.07
65666;BME280;52365;47.464;18.976;2023-01-28T00:09:16;99807.84;;;4.46;61.37
65666;BME280;52365;47.464;18.976;2023-01-28T00:09:53;99808.00;;;4.59;61.41
65666;BME280;52365;47.464;18.976;2023-01-28T00:10:29;99804.84;;;4.44;61.63
65666;BME280;52365;47.464;18.976;2023-01-28T00:11:06;99802.78;;;4.32;62.31
65666;BME280;52365;47.464;18.976;2023-01-28T00:11:43;99806.44;;;4.61;61.74
65666;BME280;52365;47.464;18.976;2023-01-28T00:12:19;99804.84;;;4.44;61.95
65666;BME280;52365;47.464;18.976;2023-01-28T00:12:55;99807.97;;;4.39;62.32
65666;BME280;52365;47.464;18.976;2023-01-28T00:13:32;99809.03;;;4.45;62.12
65666;BME280;52365;47.464;18.976;2023-01-28T00:14:10;99811.59;;;4.28;62.45
65666;BME280;52365;47.464;18.976;2023-01-28T00:14:46;99804.81;;;4.04;63.02
65666;BME280;52365;47.464;18.976;2023-01-28T00:15:22;99815.34;;;4.11;63.34
65666;BME280;52365;47.464;18.976;2023-01-28T00:16:04;99814.59;;;4.11;63.22
65666;BME280;52365;47.464;18.976;2023-01-28T00:16:40;99809.13;;;4.18;63.41
65666;BME280;52365;47.464;18.976;2023-01-28T00:17:16;99808.75;;;4.39;62.95
65666;BME280;52365;47.464;18.976;2023-01-28T00:17:53;99812.50;;;4.42;62.79
65666;BME280;52365;47.464;18.976;2023-01-28T00:18:30;99802.78;;;4.32;62.68
65666;BME280;52365;47.464;18.976;2023-01-28T00:19:07;99805.03;;;4.33;62.59
65666;BME280;52365;47.464;18.976;2023-01-28T00:19:43;99812.06;;;4.23;62.73
65666;BME280;52365;47.464;18.976;2023-01-28T00:20:19;99809.87;;;4.18;62.99
65666;BME280;52365;47.464;18.976;2023-01-28T00:20:59;99794.50;;;4.26;63.32
65666;BME280;52365;47.464;18.976;2023-01-28T00:21:35;99801.69;;;4.29;62.98
65666;BME280;52365;47.464;18.976;2023-01-28T00:22:11;99797.56;;;4.24;62.98
65666;BME280;52365;47.464;18.976;2023-01-28T00:22:48;99807.97;;;4.19;63.08
65666;BME280;52365;47.464;18.976;2023-01-28T00:23:25;99808.72;;;4.19;63.30
65666;BME280;52365;47.464;18.976;2023-01-28T00:24:02;99815.38;;;4.08;63.70
65666;BME280;52365;47.464;18.976;2023-01-28T00:24:38;99814.53;;;4.14;63.86
65666;BME280;52365;47.464;18.976;2023-01-28T00:25:15;99809.78;;;4.45;62.76
65666;BME280;52365;47.464;18.976;2023-01-28T00:25:51;99813.88;;;4.50;61.72
65666;BME280;52365;47.464;18.976;2023-01-28T00:26:27;99820.81;;;4.24;62.08
65666;BME280;52365;47.464;18.976;2023-01-28T00:27:03;99819.88;;;4.14;62.90
65666;BME280;52365;47.464;18.976;2023-01-28T00:27:39;99816.22;;;4.48;62.52
65666;BME280;52365;47.464;18.976;2023-01-28T00:28:15;99818.69;;;4.78;61.50
65666;BME280;52365;47.464;18.976;2023-01-28T00:28:51;99817.56;;;4.76;61.14
65666;BME280;52365;47.464;18.976;2023-01-28T00:29:27;99820.13;;;4.63;61.48
65666;BME280;52365;47.464;18.976;2023-01-28T00:30:04;99817.84;;;4.42;62.32
65666;BME280;52365;47.464;18.976;2023-01-28T00:30:40;99816.53;;;4.30;62.81
65666;BME280;52365;47.464;18.976;2023-01-28T00:31:52;99817.13;;;3.94;64.02
65666;BME280;52365;47.464;18.976;2023-01-28T00:32:28;99809.13;;;3.94;64.38
65666;BME280;52365;47.464;18.976;2023-01-28T00:33:04;99814.53;;;3.91;64.73
65666;BME280;52365;47.464;18.976;2023-01-28T00:33:40;99803.56;;;3.85;64.97
65666;BME280;52365;47.464;18.976;2023-01-28T00:34:16;99812.97;;;3.93;64.86
65666;BME280;52365;47.464;18.976;2023-01-28T00:34:52;99816.44;;;3.90;64.72
65666;BME280;52365;47.464;18.976;2023-01-28T00:35:28;99811.28;;;3.79;64.96
65666;BME280;52365;47.464;18.976;2023-01-28T00:36:05;99809.41;;;3.53;66.22
65666;BME280;52365;47.464;18.976;2023-01-28T00:36:41;99813.59;;;3.54;66.38
65666;BME280;52365;47.464;18.976;2023-01-28T00:37:17;99814.88;;;3.69;65.96
65666;BME280;52365;47.464;18.976;2023-01-28T00:37:53;99817.03;;;3.51;65.26
65666;BME280;52365;47.464;18.976;2023-01-28T00:38:29;99813.78;;;3.40;64.09
65666;BME280;52365;47.464;18.976;2023-01-28T00:39:05;99810.78;;;3.65;64.11
65666;BME280;52365;47.464;18.976;2023-01-28T00:39:41;99808.16;;;3.85;63.79
65666;BME280;52365;47.464;18.976;2023-01-28T00:40:17;99818.41;;;3.86;63.80
65666;BME280;52365;47.464;18.976;2023-01-28T00:40:54;99822.38;;;3.78;64.27
65666;BME280;52365;47.464;18.976;2023-01-28T00:41:30;99814.66;;;3.84;64.33
65666;BME280;52365;47.464;18.976;2023-01-28T00:42:07;99817.50;;;3.96;64.41
65666;BME280;52365;47.464;18.976;2023-01-28T00:42:43;99816.28;;;4.01;64.32
65666;BME280;52365;47.464;18.976;2023-01-28T00:43:19;99816.28;;;4.01;63.63
65666;BME280;52365;47.464;18.976;2023-01-28T00:43:56;99812.72;;;4.08;63.63
65666;BME280;52365;47.464;18.976;2023-01-28T00:44:32;99815.38;;;4.08;62.79
65666;BME280;52365;47.464;18.976;2023-01-28T00:45:08;99813.59;;;4.01;62.98
65666;BME280;52365;47.464;18.976;2023-01-28T00:45:44;99812.09;;;4.00;63.02
65666;BME280;52365;47.464;18.976;2023-01-28T00:46:21;99816.97;;;4.05;62.71
65666;BME280;52365;47.464;18.976;2023-01-28T00:46:57;99819.16;;;4.10;62.66
65666;BME280;52365;47.464;18.976;2023-01-28T00:47:33;99824.78;;;4.16;62.72
65666;BME280;52365;47.464;18.976;2023-01-28T00:48:10;99823.06;;;4.25;62.57
65666;BME280;52365;47.464;18.976;2023-01-28T00:48:46;99828.75;;;4.71;61.68
65666;BME280;52365;47.464;18.976;2023-01-28T00:49:22;99831.44;;;4.47;60.90
65666;BME280;52365;47.464;18.976;2023-01-28T00:49:58;99825.94;;;3.68;62.80
65666;BME280;52365;47.464;18.976;2023-01-28T00:50:34;99823.41;;;3.84;61.90
65666;BME280;52365;47.464;18.976;2023-01-28T00:51:12;99824.25;;;3.77;61.01
65666;BME280;52365;47.464;18.976;2023-01-28T00:51:48;99820.44;;;4.02;60.50
65666;BME280;52365;47.464;18.976;2023-01-28T00:52:25;99828.28;;;4.13;59.78
65666;BME280;52365;47.464;18.976;2023-01-28T00:53:01;99832.59;;;4.26;59.72
65666;BME280;52365;47.464;18.976;2023-01-28T00:53:37;99827.97;;;4.31;59.46
65666;BME280;52365;47.464;18.976;2023-01-28T00:54:14;99824.25;;;4.24;59.49
65666;BME280;52365;47.464;18.976;2023-01-28T00:54:50;99820.72;;;4.31;59.68
65666;BME280;52365;47.464;18.976;2023-01-28T00:55:27;99826.00;;;4.54;59.22
65666;BME280;52365;47.464;18.976;2023-01-28T00:56:07;99814.09;;;4.39;59.02
65666;BME280;52365;47.464;18.976;2023-01-28T00:56:44;99827.88;;;4.34;59.98
65666;BME280;52365;47.464;18.976;2023-01-28T00:57:20;99833.63;;;4.33;59.88
65666;BME280;52365;47.464;18.976;2023-01-28T00:57:56;99830.28;;;4.28;59.35
65666;BME280;52365;47.464;18.976;2023-01-28T00:58:32;99833.59;;;4.56;59.33
65666;BME280;52365;47.464;18.976;2023-01-28T00:59:08;99826.63;;;4.62;58.10
65666;BME280;52365;47.464;18.976;2023-01-28T00:59:45;99829.97;;;4.66;58.15
65666;BME280;52365;47.464;18.976;2023-01-28T01:00:21;99835.84;;;4.97;57.67
65666;BME280;52365;47.464;18.976;2023-01-28T01:01:46;99826.81;;;4.08;58.60
65666;BME280;52365;47.464;18.976;2023-01-28T01:02:22;99825.94;;;4.15;59.23
65666;BME280;52365;47.464;18.976;2023-01-28T01:02:59;99827.16;;;4.10;59.42
65666;BME280;52365;47.464;18.976;2023-01-28T01:03:35;99831.22;;;3.71;58.15
65666;BME280;52365;47.464;18.976;2023-01-28T01:04:11;99824.94;;;3.82;58.46
65666;BME280;52365;47.464;18.976;2023-01-28T01:04:47;99825.22;;;3.91;57.93
65666;BME280;52365;47.464;18.976;2023-01-28T01:05:33;99827.16;;;4.10;58.07
65666;BME280;52365;47.464;18.976;2023-01-28T01:06:13;99821.59;;;4.01;57.60
65666;BME280;52365;47.464;18.976;2023-01-28T01:06:49;99831.13;;;3.78;57.56
65666;BME280;52365;47.464;18.976;2023-01-28T01:07:30;99829.16;;;3.83;57.54
65666;BME280;52365;47.464;18.976;2023-01-28T01:08:24;99824.25;;;3.77;56.93
65666;BME280;52365;47.464;18.976;2023-01-28T01:09:10;99827.38;;;4.19;56.44
65666;BME280;52365;47.464;18.976;2023-01-28T01:09:47;99816.38;;;4.17;55.83
65666;BME280;52365;47.464;18.976;2023-01-28T01:10:23;99825.13;;;4.18;55.74
65666;BME280;52365;47.464;18.976;2023-01-28T01:11:01;99823.69;;;4.13;55.93
65666;BME280;52365;47.464;18.976;2023-01-28T01:11:37;99826.41;;;4.10;55.64
65666;BME280;52365;47.464;18.976;2023-01-28T01:12:14;99821.06;;;3.86;56.34
65666;BME280;52365;47.464;18.976;2023-01-28T01:12:50;99821.59;;;4.01;56.68
65666;BME280;52365;47.464;18.976;2023-01-28T01:13:26;99816.84;;;4.12;56.53
65666;BME280;52365;47.464;18.976;2023-01-28T01:14:02;99834.22;;;4.20;56.08
65666;BME280;52365;47.464;18.976;2023-01-28T01:14:40;99822.16;;;4.12;56.18
65666;BME280;52365;47.464;18.976;2023-01-28T01:15:16;99817.63;;;4.13;56.27
65666;BME280;52365;47.464;18.976;2023-01-28T01:16:10;99821.31;;;4.19;55.95
65666;BME280;52365;47.464;18.976;2023-01-28T01:16:47;99823.22;;;4.18;55.69
65666;BME280;52365;47.464;18.976;2023-01-28T01:17:23;99827.16;;;4.10;56.32
65666;BME280;52365;47.464;18.976;2023-01-28T01:17:59;99823.06;;;4.25;56.38
65666;BME280;52365;47.464;18.976;2023-01-28T01:18:36;99818.00;;;4.35;56.17
65666;BME280;52365;47.464;18.976;2023-01-28T01:19:12;99827.66;;;4.25;56.25
65666;BME280;52365;47.464;18.976;2023-01-28T01:19:48;99829.47;;;4.32;55.79
65666;BME280;52365;47.464;18.976;2023-01-28T01:20:27;99824.81;;;4.36;55.62
65666;BME280;52365;47.464;18.976;2023-01-28T01:21:09;99820.25;;;4.36;55.67
65666;BME280;52365;47.464;18.976;2023-01-28T01:21:45;99826.53;;;4.46;55.72
65666;BME280;52365;47.464;18.976;2023-01-28T01:22:25;99819.28;;;4.66;55.70
65666;BME280;52365;47.464;18.976;2023-01-28T01:23:01;99834.34;;;4.96;54.74
65666;BME280;52365;47.464;18.976;2023-01-28T01:23:37;99827.03;;;4.80;55.16
65666;BME280;52365;47.464;18.976;2023-01-28T01:24:13;99825.37;;;4.67;56.04
65666;BME280;52365;47.464;18.976;2023-01-28T01:24:49;99826.75;;;4.55;56.29
65666;BME280;52365;47.464;18.976;2023-01-28T01:25:25;99820.31;;;4.52;55.54
65666;BME280;52365;47.464;18.976;2023-01-28T01:26:03;99829.34;;;4.59;55.48
65666;BME280;52365;47.464;18.976;2023-01-28T01:26:40;99821.00;;;4.57;54.83
65666;BME280;52365;47.464;18.976;2023-01-28T01:27:16;99826.69;;;4.59;54.62
65666;BME280;52365;47.464;18.976;2023-01-28T01:27:52;99831.00;;;4.52;54.29
65666;BME280;52365;47.464;18.976;2023-01-28T01:28:28;99823.31;;;4.54;54.18
65666;BME280;52365;47.464;18.976;2023-01-28T01:29:04;99829.88;;;4.50;55.16
65666;BME280;52365;47.464;18.976;2023-01-28T01:29:40;99827.44;;;4.59;55.59
65666;BME280;52365;47.464;18.976;2023-01-28T01:30:16;99832.50;;;4.73;55.27
65666;BME280;52365;47.464;18.976;2023-01-28T01:31:04;99825.13;;;4.61;55.66
65666;BME280;52365;47.464;18.976;2023-01-28T01:31:41;99830.31;;;4.68;55.52
65666;BME280;52365;47.464;18.976;2023-01-28T01:32:18;99840.09;;;4.75;55.27
65666;BME280;52365;47.464;18.976;2023-01-28T01:32:56;99836.53;;;4.82;55.33
65666;BME280;52365;47.464;18.976;2023-01-28T01:33:33;99838.56;;;4.74;55.50
65666;BME280;52365;47.464;18.976;2023-01-28T01:34:09;99832.44;;;4.97;55.16
65666;BME280;52365;47.464;18.976;2023-01-28T01:34:45;99831.06;;;4.89;54.88
65666;BME280;52365;47.464;18.976;2023-01-28T01:35:21;99837.41;;;4.95;55.11
65666;BME280;52365;47.464;18.976;2023-01-28T01:35:58;99838.28;;;5.08;54.69
65666;BME280;52365;47.464;18.976;2023-01-28T01:36:34;99833.94;;;5.50;53.80
65666;BME280;52365;47.464;18.976;2023-01-28T01:37:10;99829.69;;;5.69;53.44
65666;BME280;52365;47.464;18.976;2023-01-28T01:37:46;99839.16;;;5.58;53.43
65666;BME280;52365;47.464;18.976;2023-01-28T01:38:22;99824.19;;;5.08;54.66
65666;BME280;52365;47.464;18.976;2023-01-28T01:38:58;99836.16;;;5.19;55.04
65666;BME280;52365;47.464;18.976;2023-01-28T01:39:35;99836.72;;;4.91;55.19
65666;BME280;52365;47.464;18.976;2023-01-28T01:40:11;99828.19;;;4.79;56.05
65666;BME280;52365;47.464;18.976;2023-01-28T01:40:47;99827.00;;;4.61;56.98
65666;BME280;52365;47.464;18.976;2023-01-28T01:42:02;99829.50;;;4.71;57.30
65666;BME280;52365;47.464;18.976;2023-01-28T01:42:38;99837.09;;;4.73;57.31
65666;BME280;52365;47.464;18.976;2023-01-28T01:43:19;99837.84;;;4.73;57.11
65666;BME280;52365;47.464;18.976;2023-01-28T01:44:01;99835.44;;;4.59;57.78
65666;BME280;52365;47.464;18.976;2023-01-28T01:45:33;99838.16;;;4.95;57.05
65666;BME280;52365;47.464;18.976;2023-01-28T01:46:10;99836.78;;;5.07;56.60
65666;BME280;52365;47.464;18.976;2023-01-28T01:46:49;99832.69;;;5.02;56.90
65666;BME280;52365;47.464;18.976;2023-01-28T01:47:37;99838.19;;;5.48;55.86
65666;BME280;52365;47.464;18.976;2023-01-28T01:48:24;99837.53;;;5.60;55.03
65666;BME280;52365;47.464;18.976;2023-01-28T01:49:24;99829.88;;;5.62;54.70
65666;BME280;52365;47.464;18.976;2023-01-28T01:50:05;99831.53;;;4.64;57.46
65666;BME280;52365;47.464;18.976;2023-01-28T01:50:48;99835.91;;;4.54;58.10
65666;BME280;52365;47.464;18.976;2023-01-28T01:51:30;99831.97;;;4.62;57.99
65666;BME280;52365;47.464;18.976;2023-01-28T01:52:10;99839.22;;;4.62;58.14
65666;BME280;52365;47.464;18.976;2023-01-28T01:52:51;99831.13;;;4.65;58.12
65666;BME280;52365;47.464;18.976;2023-01-28T01:53:29;99838.44;;;4.41;59.01
65666;BME280;52365;47.464;18.976;2023-01-28T01:54:06;99834.06;;;4.31;59.71
65666;BME280;52365;47.464;18.976;2023-01-28T01:54:46;99830.00;;;4.23;60.37
65666;BME280;52365;47.464;18.976;2023-01-28T01:55:24;99829.31;;;4.39;60.81
65666;BME280;52365;47.464;18.976;2023-01-28T01:56:04;99838.16;;;4.95;59.11
65666;BME280;52365;47.464;18.976;2023-01-28T01:56:43;99831.66;;;5.33;57.41
65666;BME280;52365;47.464;18.976;2023-01-28T01:57:26;99839.69;;;5.33;56.32
65666;BME280;52365;47.464;18.976;2023-01-28T01:58:07;99835.22;;;4.50;57.34
65666;BME280;52365;47.464;18.976;2023-01-28T01:58:46;99839.06;;;4.49;58.40
65666;BME280;52365;47.464;18.976;2023-01-28T01:59:28;99841.94;;;4.58;57.97
65666;BME280;52365;47.464;18.976;2023-01-28T02:00:06;99839.88;;;4.46;58.30
65666;BME280;52365;47.464;18.976;2023-01-28T02:00:42;99841.37;;;4.47;58.71
65666;BME280;52365;47.464;18.976;2023-01-28T02:01:20;99841.03;;;4.65;58.62
65666;BME280;52365;47.464;18.976;2023-01-28T02:02:00;99840.66;;;4.66;58.63
65666;BME280;52365;47.464;18.976;2023-01-28T02:02:40;99840.34;;;4.61;59.00
65666;BME280;52365;47.464;18.976;2023-01-28T02:03:24;99842.66;;;4.39;59.13
65666;BME280;52365;47.464;18.976;2023-01-28T02:04:19;99834.91;;;4.24;59.72
65666;BME280;52365;47.464;18.976;2023-01-28T02:04:57;99833.53;;;4.16;60.37
65666;BME280;52365;47.464;18.976;2023-01-28T02:05:33;99844.91;;;4.20;60.22
65666;BME280;52365;47.464;18.976;2023-01-28T02:06:09;99832.34;;;4.41;59.81
65666;BME280;52365;47.464;18.976;2023-01-28T02:06:47;99830.84;;;4.40;59.55
65666;BME280;52365;47.464;18.976;2023-01-28T02:07:23;99834.59;;;4.42;59.48
65666;BME280;52365;47.464;18.976;2023-01-28T02:07:59;99837.00;;;4.37;59.82
65666;BME280;52365;47.464;18.976;2023-01-28T02:08:54;99837.12;;;4.29;60.24
65666;BME280;52365;47.464;18.976;2023-01-28T02:09:33;99834.97;;;4.84;59.29
65666;BME280;52365;47.464;18.976;2023-01-28T02:10:12;99838.28;;;5.08;57.99
65666;BME280;52365;47.464;18.976;2023-01-28T02:10:55;99842.63;;;5.02;57.79
65666;BME280;52365;47.464;18.976;2023-01-28T02:11:33;99835.50;;;4.95;58.09
65666;BME280;52365;47.464;18.976;2023-01-28T02:12:53;99836.53;;;4.42;59.43
65666;BME280;52365;47.464;18.976;2023-01-28T02:13:39;99837.31;;;4.39;59.87
65666;BME280;52365;47.464;18.976;2023-01-28T02:14:16;99836.88;;;4.64;59.56
65666;BME280;52365;47.464;18.976;2023-01-28T02:14:59;99837.97;;;4.66;59.30
65666;BME280;52365;47.464;18.976;2023-01-28T02:15:38;99838.59;;;4.54;59.98
65666;BME280;52365;47.464;18.976;2023-01-28T02:16:14;99833.25;;;4.54;60.12
65666;BME280;52365;47.464;18.976;2023-01-28T02:16:50;99844.62;;;4.58;59.81
65666;BME280;52365;47.464;18.976;2023-01-28T02:17:26;99831.97;;;4.62;59.63
65666;BME280;52365;47.464;18.976;2023-01-28T02:18:03;99840.63;;;4.46;60.25
65666;BME280;52365;47.464;18.976;2023-01-28T02:18:39;99832.56;;;4.50;60.40
65666;BME280;52365;47.464;18.976;2023-01-28T02:19:16;99837.09;;;4.53;59.75
65666;BME280;52365;47.464;18.976;2023-01-28T02:19:58;99836.34;;;4.52;60.12
65666;BME280;52365;47.464;18.976;2023-01-28T02:23:38;99842.75;;;4.55;60.33
65666;BME280;52365;47.464;18.976;2023-01-28T02:25:18;99837.62;;;4.44;60.11
65666;BME280;52365;47.464;18.976;2023-01-28T02:26:24;99841.00;;;4.48;59.89
65666;BME280;52365;47.464;18.976;2023-01-28T02:28:20;99836.03;;;4.47;60.15
65666;BME280;52365;47.464;18.976;2023-01-28T02:30:21;99830.97;;;4.33;61.37
65666;BME280;52365;47.464;18.976;2023-01-28T02:31:43;99838.38;;;4.45;61.31
65666;BME280;52365;47.464;18.976;2023-01-28T02:32:26;99840.84;;;4.36;61.34
65666;BME280;52365;47.464;18.976;2023-01-28T02:33:10;99829.47;;;4.32;61.18
65666;BME280;52365;47.464;18.976;2023-01-28T02:34:03;99824.88;;;4.32;61.69
65666;BME280;52365;47.464;18.976;2023-01-28T02:35:00;99836.03;;;4.47;60.87
65666;BME280;52365;47.464;18.976;2023-01-28T02:35:52;99828.38;;;4.49;60.57
65666;BME280;52365;47.464;18.976;2023-01-28T02:36:50;99830.63;;;4.50;60.69
65666;BME280;52365;47.464;18.976;2023-01-28T02:37:33;99819.44;;;4.39;60.84
65666;BME280;52365;47.464;18.976;2023-01-28T02:38:17;99821.41;;;4.35;61.32
65666;BME280;52365;47.464;18.976;2023-01-28T02:39:00;99832.69;;;4.43;61.37
65666;BME280;52365;47.464;18.976;2023-01-28T02:39:48;99825.56;;;4.36;61.62
65666;BME280;52365;47.464;18.976;2023-01-28T02:40:28;99824.75;;;4.59;61.16
65666;BME280;52365;47.464;18.976;2023-01-28T02:41:10;99822.50;;;4.58;60.69
65666;BME280;52365;47.464;18.976;2023-01-28T02:42:12;99826.91;;;4.48;60.88
65666;BME280;52365;47.464;18.976;2023-01-28T02:42:50;99830.28;;;4.28;61.59
65666;BME280;52365;47.464;18.976;2023-01-28T02:43:42;99830.53;;;4.58;61.26
65666;BME280;52365;47.464;18.976;2023-01-28T02:44:18;99821.13;;;4.49;61.27
65666;BME280;52365;47.464;18.976;2023-01-28T02:44:54;99821.47;;;4.51;61.12
65666;BME280;52365;47.464;18.976;2023-01-28T02:45:32;99829.41;;;4.55;61.29
65666;BME280;52365;47.464;18.976;2023-01-28T02:47:21;99829.09;;;4.29;62.08
65666;BME280;52365;47.464;18.976;2023-01-28T02:48:18;99830.84;;;4.40;62.04
65666;BME280;52365;47.464;18.976;2023-01-28T02:48:56;99825.31;;;4.31;62.47
65666;BME280;52365;47.464;18.976;2023-01-28T02:50:18;99818.53;;;4.46;62.01
65666;BME280;52365;47.464;18.976;2023-01-28T02:51:08;99826.59;;;4.42;61.96
65666;BME280;52365;47.464;18.976;2023-01-28T02:53:06;99827.75;;;4.41;61.84
65666;BME280;52365;47.464;18.976;2023-01-28T02:54:11;99826.09;;;4.27;62.34
65666;BME280;52365;47.464;18.976;2023-01-28T02:55:09;99823.91;;;3.99;63.38
65666;BME280;52365;47.464;18.976;2023-01-28T02:56:06;99826.41;;;4.10;63.48
65666;BME280;52365;47.464;18.976;2023-01-28T02:59:12;99825.19;;;4.14;62.66
65666;BME280;52365;47.464;18.976;2023-01-28T03:00:44;99832.69;;;4.43;62.40
65666;BME280;52365;47.464;18.976;2023-01-28T03:01:35;99826.84;;;4.28;61.99
65666;BME280;52365;47.464;18.976;2023-01-28T03:02:34;99822.91;;;4.36;62.09
65666;BME280;52365;47.464;18.976;2023-01-28T03:03:17;99820.56;;;4.18;62.16
65666;BME280;52365;47.464;18.976;2023-01-28T03:04:14;99833.37;;;4.27;62.27
65666;BME280;52365;47.464;18.976;2023-01-28T03:05:06;99827.28;;;4.26;62.11
65666;BME280;52365;47.464;18.976;2023-01-28T03:05:55;99830.06;;;4.19;62.59
65666;BME280;52365;47.464;18.976;2023-01-28T03:06:48;99825.06;;;4.21;63.09
65666;BME280;52365;47.464;18.976;2023-01-28T03:07:26;99831.78;;;4.29;62.67
65666;BME280;52365;47.464;18.976;2023-01-28T03:08:05;99822.84;;;4.16;62.54
65666;BME280;52365;47.464;18.976;2023-01-28T03:09:04;99826.47;;;4.06;62.75
65666;BME280;52365;47.464;18.976;2023-01-28T03:10:03;99819.47;;;3.92;63.05
65666;BME280;52365;47.464;18.976;2023-01-28T03:10:40;99821.31;;;3.95;63.33
65666;BME280;52365;47.464;18.976;2023-01-28T03:11:17;99824.81;;;3.92;63.26
65666;BME280;52365;47.464;18.976;2023-01-28T03:12:20;99834.00;;;3.88;63.12
65666;BME280;52365;47.464;18.976;2023-01-28T03:13:15;99826.25;;;3.73;63.69
65666;BME280;52365;47.464;18.976;2023-01-28T03:14:10;99825.56;;;3.93;63.73
65666;BME280;52365;47.464;18.976;2023-01-28T03:15:09;99825.87;;;3.95;62.77
65666;BME280;52365;47.464;18.976;2023-01-28T03:16:06;99828.78;;;3.81;63.59
65666;BME280;52365;47.464;18.976;2023-01-28T03:17:02;99825.31;;;3.60;63.83
65666;BME280;52365;47.464;18.976;2023-01-28T03:18:15;99830.06;;;3.72;64.22
65666;BME280;52365;47.464;18.976;2023-01-28T03:19:12;99832.81;;;4.36;62.25
65666;BME280;52365;47.464;18.976;2023-01-28T03:20:08;99827.97;;;4.31;61.40
65666;BME280;52365;47.464;18.976;2023-01-28T03:21:21;99831.34;;;4.11;61.79
65666;BME280;52365;47.464;18.976;2023-01-28T03:22:19;99825.81;;;3.98;62.74
65666;BME280;52365;47.464;18.976;2023-01-28T03:23:20;99829.88;;;4.07;62.32
65666;BME280;52365;47.464;18.976;2023-01-28T03:24:16;99830.12;;;3.92;62.85
65666;BME280;52365;47.464;18.976;2023-01-28T03:25:14;99839.28;;;3.91;63.10
65666;BME280;52365;47.464;18.976;2023-01-28T03:26:11;99825.25;;;4.11;63.10
65666;BME280;52365;47.464;18.976;2023-01-28T03:27:17;99830.63;;;4.31;62.10
65666;BME280;52365;47.464;18.976;2023-01-28T03:28:17;99831.91;;;4.22;62.16
65666;BME280;52365;47.464;18.976;2023-01-28T03:29:14;99834.22;;;4.20;62.40
65666;BME280;52365;47.464;18.976;2023-01-28T03:30:19;99826.59;;;4.22;62.40
65666;BME280;52365;47.464;18.976;2023-01-28T03:31:18;99831.50;;;4.24;63.05
65666;BME280;52365;47.464;18.976;2023-01-28T03:32:14;99831.56;;;4.20;62.80
65666;BME280;52365;47.464;18.976;2023-01-28T03:33:10;99834.59;;;4.22;62.68
65666;BME280;52365;47.464;18.976;2023-01-28T03:34:05;99839.16;;;4.22;62.26
65666;BME280;52365;47.464;18.976;2023-01-28T03:35:01;99826.00;;;4.11;62.62
65666;BME280;52365;47.464;18.976;2023-01-28T03:35:56;99828.28;;;4.13;62.28
65666;BME280;52365;47.464;18.976;2023-01-28T03:36:51;99828.19;;;4.16;62.49
65666;BME280;52365;47.464;18.976;2023-01-28T03:37:28;99824.44;;;4.14;62.08
65666;BME280;52365;47.464;18.976;2023-01-28T03:38:05;99830.78;;;4.00;62.31
65666;BME280;52365;47.464;18.976;2023-01-28T03:38:52;99828.09;;;3.76;63.53
65666;BME280;52365;47.464;18.976;2023-01-28T03:39:29;99825.34;;;4.03;63.34
65666;BME280;52365;47.464;18.976;2023-01-28T03:40:06;99826.00;;;4.11;62.77
65666;BME280;52365;47.464;18.976;2023-01-28T03:40:55;99830.28;;;4.28;62.47
65666;BME280;52365;47.464;18.976;2023-01-28T03:41:32;99831.59;;;4.60;61.54
65666;BME280;52365;47.464;18.976;2023-01-28T03:42:10;99830.84;;;4.40;61.55
65666;BME280;52365;47.464;18.976;2023-01-28T03:42:47;99838.50;;;4.38;61.40
65666;BME280;52365;47.464;18.976;2023-01-28T03:43:23;99834.13;;;4.27;61.80
65666;BME280;52365;47.464;18.976;2023-01-28T03:43:59;99836.38;;;4.29;61.82
65666;BME280;52365;47.464;18.976;2023-01-28T03:44:54;99838.97;;;4.33;61.34
65666;BME280;52365;47.464;18.976;2023-01-28T03:45:31;99844.03;;;4.27;61.76
65666;BME280;52365;47.464;18.976;2023-01-28T03:46:07;99840.53;;;4.30;61.83
65666;BME280;52365;47.464;18.976;2023-01-28T03:46:43;99834.00;;;4.35;61.87
65666;BME280;52365;47.464;18.976;2023-01-28T03:47:22;99839.34;;;4.35;61.38
65666;BME280;52365;47.464;18.976;2023-01-28T03:47:58;99838.78;;;4.43;61.38
65666;BME280;52365;47.464;18.976;2023-01-28T03:48:34;99838.84;;;4.40;61.22
65666;BME280;52365;47.464;18.976;2023-01-28T03:49:10;99837.31;;;4.39;61.43
65666;BME280;52365;47.464;18.976;2023-01-28T03:49:48;99845.03;;;4.57;61.32
65666;BME280;52365;47.464;18.976;2023-01-28T03:50:24;99842.69;;;4.59;61.06
65666;BME280;52365;47.464;18.976;2023-01-28T03:51:00;99840.91;;;4.52;61.28
65666;BME280;52365;47.464;18.976;2023-01-28T03:51:36;99842.22;;;4.44;61.46
65666;BME280;52365;47.464;18.976;2023-01-28T03:52:12;99842.38;;;4.33;61.78
65666;BME280;52365;47.464;18.976;2023-01-28T03:52:48;99844.09;;;4.23;61.78
65666;BME280;52365;47.464;18.976;2023-01-28T03:53:25;99844.41;;;4.25;61.86
65666;BME280;52365;47.464;18.976;2023-01-28T03:54:01;99841.03;;;4.45;61.76